Latest Coastal Weather Observations for Nullarbor

IDS60701

Issued at 1:01 am CST Wednesday 28 September 2016 (issued every 10 minutes, with the page automatically refreshed every 10 minutes)

About coastal observations | Map of coastal stations | Coastal observations for SA | Marine services | Other Formats
Station Details ID: 018106 Name: NULLARBOR Lat: -31.45 Lon: 130.90 Height: 64.0 m
Data from the previous 72 hours. | See also: Recent months at Nullarbor
Date/Time
CST
Temp
°C
Wind Pressure Rain since
9am
mm
Weather Cloud Vis
km
Sea
Height
m
Swell
Dir  Spd
kts
Gust
kts
hPa Trend Height
m
Period
s
Dir
28/01:00am 12.3 NNE 10 11 1003.3 - 0.0 - - 10 - - - -
28/12:30am 12.0 NE 9 10 1004.0 - 0.0 - - 10 - - - -
28/12:00am 13.3 NE 10 12 1004.7 - 0.0 - - 10 - - - -
 
Date/Time
CST
Temp
°C
Wind Pressure Rain since
9am
mm
Weather Cloud Vis
km
Sea
Height
m
Swell
Dir  Spd
kts
Gust
kts
hPa Trend Height
m
Period
s
Dir
27/11:30pm 12.1 NE 9 10 1005.5 - 0.0 - - 10 - - - -
27/11:00pm 12.1 NE 9 11 1006.1 - 0.0 - - 10 - - - -
27/10:30pm 12.0 ENE 10 11 1006.5 - 0.0 - - 10 - - - -
27/10:00pm 11.6 ENE 9 10 1007.1 - 0.0 - - 10 - - - -
27/09:30pm 12.8 E 8 10 1007.7 - 0.0 - - 10 - - - -
27/09:00pm 13.9 E 9 11 1008.0 - 0.0 - - 10 - - - -
27/08:30pm 14.5 ESE 10 14 1008.5 - 0.0 - - 10 - - - -
27/08:00pm 15.1 E 10 14 1008.8 - 0.0 - - 10 - - - -
27/07:30pm 15.5 ESE 11 14 1009.0 - 0.0 - - 10 - - - -
27/07:00pm 16.5 ESE 11 14 1009.2 - 0.0 - - 10 - - - -
27/06:30pm 18.1 ESE 11 15 1009.1 - 0.0 - - 10 - - - -
27/06:00pm 19.9 ESE 12 16 1009.2 - 0.0 - - 10 - - - -
27/05:30pm 21.5 ESE 13 17 1009.3 - 0.0 - - 10 - - - -
27/05:00pm 24.1 NNE 11 17 1009.6 - 0.0 - - 10 - - - -
27/04:30pm 24.7 N 10 15 1010.0 - 0.0 - - 10 - - - -
27/04:00pm 24.5 NNE 9 15 1010.5 - 0.0 - - 10 - - - -
27/03:30pm 24.3 N 11 16 1011.0 - 0.0 - - 10 - - - -
27/03:00pm 24.9 NE 10 15 1011.4 - 0.0 - - 10 - - - -
27/02:30pm 23.7 NNE 10 18 1012.2 - 0.0 - - 10 - - - -
27/02:00pm 23.6 NE 9 17 1012.8 - 0.0 - - 10 - - - -
27/01:30pm 23.3 NW 8 13 1013.6 - 0.0 - - 10 - - - -
27/01:00pm 22.7 N 7 11 1014.3 - 0.0 - - 10 - - - -
27/12:30pm 22.7 NNE 7 13 1015.0 - 0.0 - - 10 - - - -
27/12:00pm 22.6 NNE 8 13 1015.5 - 0.0 - - 10 - - - -
27/11:30am 21.6 NNW 8 13 1016.2 - 0.0 - - 10 - - - -
27/11:00am 20.8 N 9 14 1016.6 - 0.0 - - 10 - - - -
27/10:30am 19.7 N 11 15 1017.0 - 0.0 - - 10 - - - -
27/10:00am 18.2 N 11 15 1017.3 - 0.0 - - 10 - - - -
27/09:30am 16.7 N 11 13 1017.6 - 0.0 - - 10 - - - -
27/09:00am 15.0 N 11 14 1017.7 - 0.0 - - 10 - - - -
27/08:30am 12.6 N 11 14 1017.8 - 0.0 - - 10 - - - -
27/08:00am 10.5 N 10 13 1017.6 - 0.0 - - 10 - - - -
27/07:30am 7.8 N 9 11 1017.3 - 0.0 - - 10 - - - -
27/07:00am 4.7 N 8 10 1017.2 - 0.0 - - 10 - - - -
27/06:30am 4.0 N 9 10 1017.1 - 0.0 - - 10 - - - -
27/06:00am 3.9 N 8 9 1017.0 - 0.0 - - 10 - - - -
27/05:30am 3.2 N 9 10 1016.8 - 0.0 - - 10 - - - -
27/05:00am 3.2 N 8 9 1016.6 - 0.0 - - 10 - - - -
27/04:30am 3.0 NNE 9 9 1016.5 - 0.0 - - 10 - - - -
27/04:00am 3.4 N 9 10 1016.6 - 0.0 - - 10 - - - -
27/03:30am 3.0 N 9 10 1016.9 - 0.0 - - 10 - - - -
27/03:00am 3.6 N 9 9 1017.1 - 0.0 - - 10 - - - -
27/02:30am 4.0 N 9 10 1017.4 - 0.0 - - 10 - - - -
27/02:00am 3.5 N 8 10 1017.7 - 0.0 - - 10 - - - -
27/01:30am 4.4 N 7 8 1018.0 - 0.0 - - 10 - - - -
27/01:00am 4.1 NNE 8 9 1018.1 - 0.0 - - 10 - - - -
27/12:30am 5.2 N 4 5 1018.3 - 0.0 - - 10 - - - -
27/12:00am 5.5 NNE 4 7 1018.4 - 0.0 - - 10 - - - -
 
Date/Time
CST
Temp
°C
Wind Pressure Rain since
9am
mm
Weather Cloud Vis
km
Sea
Height
m
Swell
Dir  Spd
kts
Gust
kts
hPa Trend Height
m
Period
s
Dir
26/11:30pm 6.6 CALM 0 0 1018.5 - 0.0 - - 10 - - - -
26/11:00pm 7.0 SSE 2 4 1018.6 - 0.0 - - 10 - - - -
26/10:30pm 7.0 SSE 5 6 1018.6 - 0.0 - - 10 - - - -
26/10:00pm 7.9 SE 5 6 1018.5 - 0.0 - - 10 - - - -
26/09:30pm 7.2 ESE 5 5 1018.5 - 0.0 - - 10 - - - -
26/09:00pm 7.8 SE 5 6 1018.6 - 0.0 - - 10 - - - -
26/08:30pm 8.7 SE 6 6 1018.3 - 0.0 - - 10 - - - -
26/08:00pm 9.2 SE 6 8 1018.1 - 0.0 - - 10 - - - -
26/07:30pm 10.1 SE 5 6 1017.8 - 0.0 - - 10 - - - -
26/07:00pm 11.8 S 9 11 1017.5 - 0.0 - - 10 - - - -
26/06:30pm 12.8 S 10 13 1017.3 - 0.0 - - 10 - - - -
26/06:00pm 13.8 S 11 14 1017.1 - 0.0 - - 10 - - - -
26/05:30pm 14.7 S 11 15 1016.9 - 0.0 - - 10 - - - -
26/05:00pm 14.9 SSW 13 18 1017.1 - 0.0 - - 10 - - - -
26/04:30pm 15.6 SSW 12 17 1016.9 - 0.0 - - 10 - - - -
26/04:00pm 16.2 SSW 12 18 1016.8 - 0.0 - - 10 - - - -
26/03:30pm 15.9 SW 13 18 1016.8 - 0.0 - - 10 - - - -
26/03:00pm 17.2 SSW 12 17 1016.6 - 0.0 - Mostly clear 10 - - - -
26/02:30pm 16.4 SSW 13 18 1016.9 - 0.0 - Partly cloudy 10 - - - -
26/02:00pm 16.7 SW 11 16 1017.3 - 0.0 - Partly cloudy 10 - - - -
26/01:30pm 16.7 SSW 12 17 1017.3 - 0.0 - Partly cloudy 10 - - - -
26/01:00pm 16.5 SSW 11 17 1017.5 - 0.0 - - 10 - - - -
26/12:30pm 16.0 SSW 10 14 1017.7 - 0.0 - Partly cloudy 10 - - - -
26/12:00pm 16.1 SSW 13 19 1018.0 - 0.0 - Partly cloudy 10 - - - -
26/11:30am 16.5 SSW 14 19 1018.1 - 0.0 - - 10 - - - -
26/11:00am 15.5 SSW 11 15 1018.1 - 0.0 - Partly cloudy 10 - - - -
26/10:30am 16.1 SSW 11 16 1018.0 - 0.0 - - 10 - - - -
26/10:00am 15.3 SSW 11 16 1018.0 - 0.0 - - 10 - - - -
26/09:30am 14.9 SW 13 18 1017.9 - 0.0 - - 10 - - - -
26/09:00am 14.7 SW 13 17 1017.6 - 0.0 - - 10 - - - -
26/08:30am 14.1 SW 15 19 1017.2 - 0.0 - - 10 - - - -
26/08:00am 13.5 SSW 13 16 1017.0 - 0.0 - - 10 - - - -
26/07:30am 12.2 SSW 7 9 1016.7 - 0.0 - - 10 - - - -
26/07:00am 10.9 SSW 9 11 1016.4 - 0.0 - - 10 - - - -
26/06:30am 10.4 SSW 8 11 1015.9 - 0.0 - - 10 - - - -
26/06:00am 11.0 SSW 9 12 1015.5 - 0.0 - - 10 - - - -
26/05:30am 11.7 SSW 12 15 1015.1 - 0.0 - - 10 - - - -
26/05:00am 12.2 SSW 14 20 1014.8 - 0.0 - - 10 - - - -
26/04:30am 12.3 SSW 15 20 1014.6 - 0.0 - Partly cloudy 10 - - - -
26/04:00am 12.9 SSW 15 21 1014.3 - 0.0 - Partly cloudy 10 - - - -
26/03:30am 13.0 SSW 15 19 1014.3 - 0.0 - Partly cloudy 10 - - - -
26/03:00am 13.0 SSW 14 19 1014.2 - 0.0 - - 10 - - - -
26/02:30am 13.3 SSW 15 21 1014.2 - 0.0 - - 10 - - - -
26/02:00am 13.8 SSW 18 24 1013.8 - 0.0 - - 10 - - - -
26/01:42am 14.1 SSW 17 26 1013.6 - 0.0 - - 10 - - - -
26/01:30am 13.3 SW 11 16 1013.5 - 0.0 - - 10 - - - -
26/01:00am 12.9 WNW 7 9 1013.2 - 0.0 - - 10 - - - -
26/12:40am 12.8 NW 11 25 1013.0 - 0.0 - - 10 - - - -
26/12:30am 11.3 NNE 6 7 1012.2 - 0.0 - - 10 - - - -
26/12:00am 11.4 NE 8 9 1011.9 - 0.0 - Partly cloudy 10 - - - -
 
Date/Time
CST
Temp
°C
Wind Pressure Rain since
9am
mm
Weather Cloud Vis
km
Sea
Height
m
Swell
Dir  Spd
kts
Gust
kts
hPa Trend Height
m
Period
s
Dir
25/11:30pm 13.7 NE 8 11 1011.9 - 0.0 - Cloudy 10 - - - -
25/11:00pm 13.2 NE 9 11 1011.9 - 0.0 - Partly cloudy 10 - - - -
25/10:30pm 12.8 NE 9 11 1012.0 - 0.0 - Partly cloudy 10 - - - -
25/10:00pm 13.4 NE 9 11 1012.2 - 0.0 - Cloudy 10 - - - -
25/09:30pm 12.8 NE 9 10 1012.2 - 0.0 - Partly cloudy 10 - - - -
25/09:00pm 13.1 ENE 8 9 1012.4 - 0.0 - Cloudy 10 - - - -
25/08:30pm 13.7 ENE 8 10 1012.3 - 0.0 - - 10 - - - -
25/08:00pm 14.4 E 10 13 1012.4 - 0.0 - - 10 - - - -
25/07:30pm 15.0 ESE 10 13 1012.6 - 0.0 - Partly cloudy 10 - - - -
25/07:00pm 15.9 ESE 11 13 1012.4 - 0.0 - Partly cloudy 10 - - - -
25/06:30pm 17.2 SE 11 15 1012.2 - 0.0 - Partly cloudy 10 - - - -
25/06:00pm 19.0 SSE 11 15 1011.9 - 0.0 - Mostly clear 10 - - - -
25/05:30pm 22.2 NNE 5 7 1011.6 - 0.0 - - 10 - - - -
25/05:00pm 22.6 WSW 5 6 1011.6 - 0.0 - - 10 - - - -
25/04:30pm 22.7 NNW 6 9 1011.5 - 0.0 - - 10 - - - -
25/04:00pm 22.5 NW 7 14 1011.6 - 0.0 - - 10 - - - -
25/03:30pm 22.5 N 8 14 1011.9 - 0.0 - - 10 - - - -
25/03:00pm 22.3 NW 7 14 1012.4 - 0.0 - - 10 - - - -
25/02:30pm 21.8 NNW 9 17 1012.8 - 0.0 - - 10 - - - -
25/02:00pm 21.9 NW 10 16 1013.4 - 0.0 - - 10 - - - -
25/01:30pm 21.0 NNW 8 15 1014.1 - 0.0 - - 10 - - - -
25/01:00pm 20.8 N 11 16 1014.6 - 0.0 - - 10 - - - -
25/12:30pm 19.9 N 10 17 1015.2 - 0.0 - - 10 - - - -
25/12:00pm 19.4 N 13 19 1015.8 - 0.0 - - 10 - - - -
25/11:30am 19.4 N 14 19 1016.5 - 0.0 - - 10 - - - -
25/11:00am 17.8 N 15 21 1016.9 - 0.0 - - 10 - - - -
25/10:30am 17.2 NNE 14 19 1017.2 - 0.0 - - 10 - - - -
25/10:00am 16.2 N 14 19 1017.5 - 0.0 - - 10 - - - -
25/09:30am 14.9 NNE 14 17 1017.7 - 0.0 - - 10 - - - -
25/09:00am 13.4 NNE 14 18 1017.7 - 0.0 - - 10 - - - -
25/08:30am 12.1 NNE 13 16 1017.7 - 0.0 - - 10 - - - -
25/08:00am 9.7 NNE 10 12 1017.5 - 0.0 - - 10 - - - -
25/07:30am 6.7 NNE 7 9 1017.3 - 0.0 - - 10 - - - -
25/07:00am 2.8 NNE 9 9 1017.0 - 0.0 - - 10 - - - -
25/06:30am 2.1 NNE 9 9 1016.9 - 0.0 - - 10 - - - -
25/06:00am 2.1 N 9 10 1016.8 - 0.0 - - 10 - - - -
25/05:30am 1.9 NNE 9 10 1016.6 - 0.0 - - 10 - - - -
25/05:00am 2.3 NNE 9 10 1016.6 - 0.0 - - 10 - - - -
25/04:30am 1.8 N 9 10 1016.5 - 0.0 - - 10 - - - -
25/04:00am 1.8 N 8 9 1016.5 - 0.0 - - 10 - - - -
25/03:30am 2.1 N 7 9 1016.5 - 0.0 - - 10 - - - -
25/03:00am 2.0 N 7 8 1016.9 - 0.0 - - 10 - - - -
25/02:30am 2.3 NNW 3 7 1016.8 - 0.0 - - 10 - - - -
25/02:00am 3.4 N 1 3 1016.8 - 0.0 - - 10 - - - -
25/01:30am 4.5 CALM 0 0 1017.2 - 0.0 - - 10 - - - -

Other Formats:

Comma delimited format used in spreadsheet applications
http://www.bom.gov.au/fwo/IDS60701/IDS60701.94651.axf

JavaScript Object Notation format (JSON) in row-major order
http://www.bom.gov.au/fwo/IDS60701/IDS60701.94651.json